Time;durP1;ratioP1;P1;durP2;ratioP2;P2;SDS_P1;SDS_P2;PMS_P1;PMS_P2;Temp;Humidity;BMP_temperature;BMP_pressure;BME280_temperature;BME280_humidity;BME280_pressure;Samples;Min_cycle;Max_cycle;Signal;HPM_P1;HPM_P2
2022/02/05 00:01:18;;;;;;;72.72;31.75;;;;;;;-4.12;80.64;97590.71;1713735;83;21045;-87
2022/02/05 00:03:44;;;;;;;73.75;31.85;;;;;;;-4.16;80.70;97592.37;1716386;83;20988;-89
2022/02/05 00:06:10;;;;;;;69.62;31.37;;;;;;;-4.18;80.07;97590.59;1698791;83;21053;-88
2022/02/05 00:11:46;;;;;;;72.75;32.25;;;;;;;-4.25;80.10;97594.34;1693408;85;21426;-88
2022/02/05 00:38:24;;;;;;;68.70;30.52;;;;;;;-4.39;80.57;97610.81;1718924;83;21060;-90
2022/02/05 00:40:52;;;;;;;75.83;31.30;;;;;;;-4.37;80.15;97606.98;1688295;85;21430;-88
2022/02/05 00:43:16;;;;;;;70.57;31.90;;;;;;;-4.40;79.85;97605.63;1688704;85;21032;-88
2022/02/05 00:45:50;;;;;;;72.85;31.07;;;;;;;-4.43;79.93;97597.79;1689286;85;21028;-89
2022/02/05 00:48:16;;;;;;;64.27;30.72;;;;;;;-4.46;80.00;97593.41;1688767;85;21039;-88
2022/02/05 00:50:50;;;;;;;62.40;29.27;;;;;;;-4.47;79.78;97587.80;1689280;85;21025;-89
2022/02/05 00:53:24;;;;;;;63.70;29.72;;;;;;;-4.49;79.74;97598.50;1719282;83;21018;-88
2022/02/05 00:55:48;;;;;;;58.95;30.10;;;;;;;-4.52;79.90;97588.11;1724499;83;21111;-89
2022/02/05 00:58:09;;;;;;;63.73;29.82;;;;;;;-4.49;80.12;97588.16;1711310;83;21033;-88
2022/02/05 01:00:37;;;;;;;61.48;30.00;;;;;;;-4.46;80.04;97582.18;1689274;84;21075;-88
2022/02/05 01:03:05;;;;;;;65.65;30.23;;;;;;;-4.47;79.86;97586.91;1689345;84;21039;-88
2022/02/05 01:05:37;;;;;;;68.22;32.55;;;;;;;-4.48;79.78;97569.65;1700045;83;21407;-88
2022/02/05 01:08:04;;;;;;;74.45;30.32;;;;;;;-4.51;79.83;97572.63;1726422;83;21028;-88
2022/02/05 01:10:31;;;;;;;68.70;29.85;;;;;;;-4.49;80.22;97573.08;1725700;83;21455;-88
2022/02/05 01:13:02;;;;;;;70.15;31.15;;;;;;;-4.49;80.33;97571.78;1726494;83;20992;-88
2022/02/05 01:15:33;;;;;;;67.15;30.27;;;;;;;-4.53;80.51;97560.50;1725660;83;21082;-88
2022/02/05 01:18:01;;;;;;;68.42;31.37;;;;;;;-4.53;80.13;97552.74;1725097;83;21107;-89
2022/02/05 01:22:52;;;;;;;66.00;31.25;;;;;;;-4.53;80.28;97554.03;1709117;82;21493;-90
2022/02/05 01:25:23;;;;;;;67.60;30.45;;;;;;;-4.51;80.13;97557.52;1708230;84;21506;-90
2022/02/05 01:27:55;;;;;;;65.08;29.63;;;;;;;-4.57;80.20;97550.91;1707661;84;21060;-90
2022/02/05 01:30:22;;;;;;;73.83;29.92;;;;;;;-4.56;80.09;97552.66;1706656;84;20994;-89
2022/02/05 01:32:53;;;;;;;65.90;29.48;;;;;;;-4.52;80.06;97560.95;1703849;84;21021;-90
2022/02/05 01:35:26;;;;;;;73.65;31.95;;;;;;;-4.51;80.13;97561.40;1676388;85;21036;-89
2022/02/05 01:49:12;;;;;;;66.10;29.23;;;;;;;-4.49;80.28;97542.04;1705131;83;21053;-88
2022/02/05 01:51:48;;;;;;;;;;;;;;;-4.48;79.92;97544.67;1696864;84;21498;-87
2022/02/05 01:56:53;;;;;;;61.92;26.48;;;;;;;-4.52;79.89;97554.05;1697218;84;21033;-88
2022/02/05 01:59:24;;;;;;;64.67;26.68;;;;;;;-4.55;80.52;97551.81;1697857;84;21076;-88
2022/02/05 02:07:25;;;;;;;50.60;25.43;;;;;;;-4.46;80.26;97549.44;1678387;85;20131;-88
2022/02/05 02:09:59;;;;;;;51.50;24.60;;;;;;;-4.43;80.04;97550.81;1652726;85;21021;-88
2022/02/05 02:12:17;;;;;;;58.23;26.10;;;;;;;-4.42;79.95;97552.97;1702393;84;21605;-88
2022/02/05 02:22:53;;;;;;;61.63;26.85;;;;;;;-4.27;79.75;97552.01;1708973;82;21048;-89
2022/02/05 02:28:04;;;;;;;61.53;28.02;;;;;;;-4.18;79.61;97541.02;1710147;84;20978;-87
2022/02/05 02:30:25;;;;;;;62.80;28.05;;;;;;;-4.11;79.72;97542.02;1706820;84;21025;-89
2022/02/05 02:32:57;;;;;;;56.98;27.13;;;;;;;-4.06;79.41;97544.69;1707755;84;21478;-88
2022/02/05 02:35:23;;;;;;;55.40;26.15;;;;;;;-4.02;79.41;97554.27;1706804;84;21041;-88
2022/02/05 02:37:58;;;;;;;60.65;28.10;;;;;;;-4.04;79.40;97548.17;1707415;84;21072;-88
2022/02/05 02:42:59;;;;;;;62.95;26.82;;;;;;;-4.02;79.33;97530.98;1684578;85;21048;-89
2022/02/05 02:45:21;;;;;;;58.23;26.82;;;;;;;-3.99;79.30;97529.76;1681723;85;21427;-90
2022/02/05 02:47:47;;;;;;;56.55;26.55;;;;;;;-3.95;79.10;97526.36;1681698;85;21032;-89
2022/02/05 02:58:26;;;;;;;57.62;25.82;;;;;;;-3.88;79.09;97533.84;1660071;86;20981;-89
2022/02/05 03:00:55;;;;;;;55.10;25.70;;;;;;;-3.79;79.13;97524.97;1625378;88;21510;-90
2022/02/05 03:03:18;;;;;;;54.80;25.65;;;;;;;-3.72;79.20;97535.91;1619774;89;21475;-90
2022/02/05 03:05:45;;;;;;;55.43;23.80;;;;;;;-3.65;78.93;97526.95;1625932;88;21028;-90
2022/02/05 03:08:11;;;;;;;51.55;23.70;;;;;;;-3.59;78.74;97522.77;1636357;86;21012;-90
2022/02/05 03:10:38;;;;;;;52.30;24.07;;;;;;;-3.56;78.85;97523.25;1704588;84;21371;-90
2022/02/05 03:13:05;;;;;;;47.00;22.70;;;;;;;-3.49;78.64;97505.67;1708016;84;21005;-90
2022/02/05 03:15:37;;;;;;;51.08;22.87;;;;;;;-3.51;77.56;97514.26;1707608;84;21053;-90
2022/02/05 03:18:06;;;;;;;49.93;22.58;;;;;;;-3.59;77.73;97514.11;1706993;84;20985;-90
2022/02/05 03:20:32;;;;;;;49.95;23.52;;;;;;;-3.58;77.78;97519.33;1707735;84;21006;-89
2022/02/05 03:23:02;;;;;;;53.28;23.80;;;;;;;-3.51;78.19;97516.84;1707246;82;21478;-89
2022/02/05 03:25:31;;;;;;;53.80;23.07;;;;;;;-3.47;78.13;97510.88;1708085;83;21720;-90
2022/02/05 03:27:59;;;;;;;53.40;23.83;;;;;;;-3.39;77.98;97523.56;1707325;84;20990;-90
2022/02/05 03:30:27;;;;;;;44.50;22.05;;;;;;;-3.38;77.72;97515.34;1697318;84;21467;-90
2022/02/05 03:32:56;;;;;;;49.60;22.82;;;;;;;-3.36;77.92;97521.01;1696426;83;21533;-90
2022/02/05 03:35:22;;;;;;;44.48;23.18;;;;;;;-3.29;77.75;97525.03;1676718;83;21060;-90
2022/02/05 03:37:49;;;;;;;56.35;23.80;;;;;;;-3.30;77.70;97517.67;1678477;84;21048;-89
2022/02/05 03:40:15;;;;;;;52.65;24.25;;;;;;;-3.26;77.66;97520.77;1678438;85;21044;-90
2022/02/05 03:42:42;;;;;;;52.30;25.17;;;;;;;-3.23;77.63;97520.83;1678220;85;21041;-91
2022/02/05 03:45:11;;;;;;;50.30;25.70;;;;;;;-3.21;77.54;97516.95;1678079;85;21060;-91
2022/02/05 03:47:37;;;;;;;59.23;27.50;;;;;;;-3.18;77.49;97523.49;1692296;85;21012;-91
2022/02/05 03:50:05;;;;;;;52.80;24.92;;;;;;;-3.20;77.59;97517.42;1698011;85;20958;-90
2022/02/05 03:52:32;;;;;;;50.90;25.45;;;;;;;-3.14;77.89;97523.11;1699632;84;21000;-90
2022/02/05 03:54:59;;;;;;;55.85;24.32;;;;;;;-3.05;77.74;97530.64;1692788;84;21050;-89
2022/02/05 03:57:25;;;;;;;51.18;25.08;;;;;;;-3.03;77.52;97525.48;1679374;85;21040;-89
2022/02/05 03:59:52;;;;;;;49.20;23.07;;;;;;;-3.00;77.54;97525.97;1682174;85;21363;-89
2022/02/05 04:02:18;;;;;;;51.92;23.50;;;;;;;-2.95;77.39;97523.87;1696340;84;20977;-89
2022/02/05 04:04:45;;;;;;;53.45;25.10;;;;;;;-3.01;76.93;97528.97;1697526;84;21092;-89
2022/02/05 04:07:11;;;;;;;47.03;24.07;;;;;;;-3.05;77.00;97534.53;1659933;86;21421;-88
2022/02/05 04:09:42;;;;;;;48.23;22.00;;;;;;;-2.98;77.21;97534.62;1708244;83;20988;-88
2022/02/05 04:17:24;;;;;;;48.75;22.45;;;;;;;-2.95;76.80;97541.17;1678214;85;21167;-89
2022/02/05 04:19:51;;;;;;;37.55;20.40;;;;;;;-2.96;76.84;97545.88;1678314;85;21402;-89
2022/02/05 04:22:18;;;;;;;43.60;21.42;;;;;;;-2.94;76.71;97531.24;1678208;85;21454;-89
2022/02/05 04:24:45;;;;;;;44.18;22.40;;;;;;;-2.94;76.82;97535.13;1678322;85;21060;-91
2022/02/05 04:27:13;;;;;;;43.08;22.22;;;;;;;-2.88;76.87;97532.63;1680676;85;21009;-89
2022/02/05 04:29:40;;;;;;;44.80;21.35;;;;;;;-2.83;76.98;97537.91;1696412;83;21501;-87
2022/02/05 04:32:08;;;;;;;50.83;23.35;;;;;;;-2.79;77.08;97538.38;1682231;85;21024;-89
2022/02/05 04:34:34;;;;;;;46.15;22.58;;;;;;;-2.75;76.74;97543.22;1703939;83;21037;-88
2022/02/05 04:37:04;;;;;;;44.35;21.65;;;;;;;-2.75;76.68;97538.89;1708336;84;21048;-89
2022/02/05 04:39:30;;;;;;;44.95;21.02;;;;;;;-2.71;76.77;97534.61;1707850;84;21062;-89
2022/02/05 04:42:06;;;;;;;42.25;21.02;;;;;;;-2.66;76.76;97537.73;1691873;84;21061;-89
2022/02/05 04:47:46;;;;;;;45.85;22.40;;;;;;;-2.62;76.57;97537.35;1678058;85;21072;-89
2022/02/05 04:53:14;;;;;;;50.85;22.60;;;;;;;-2.52;76.52;97545.72;1678459;85;21443;-89
2022/02/05 04:55:46;;;;;;;45.98;23.15;;;;;;;-2.48;76.38;97548.38;1680912;85;21016;-89
2022/02/05 04:58:08;;;;;;;46.60;21.80;;;;;;;-2.47;76.31;97552.30;1694734;84;20993;-91
2022/02/05 05:03:05;;;;;;;44.42;21.48;;;;;;;-2.45;76.17;97549.73;1708248;84;21056;-90
2022/02/05 05:05:39;;;;;;;44.55;20.97;;;;;;;-2.46;76.28;97555.34;1705404;84;21502;-89
2022/02/05 05:08:27;;;;;;;48.05;21.97;;;;;;;-2.44;76.16;97551.06;1705009;84;21466;-88
2022/02/05 05:13:13;;;;;;;39.73;20.30;;;;;;;-2.39;76.38;97545.51;1708080;84;21001;-89
2022/02/05 05:20:57;;;;;;;44.40;20.95;;;;;;;-2.25;76.18;97535.73;1707221;83;21458;-89
2022/02/05 05:23:24;;;;;;;46.00;22.05;;;;;;;-2.25;76.11;97527.94;1708173;83;21064;-89
2022/02/05 05:25:51;;;;;;;46.90;21.77;;;;;;;-2.27;75.97;97525.77;1708260;83;20973;-89
2022/02/05 05:28:17;;;;;;;42.93;22.10;;;;;;;-2.28;75.97;97519.69;1708171;83;21459;-89
2022/02/05 05:30:44;;;;;;;44.70;21.17;;;;;;;-2.23;76.07;97521.48;1708290;84;20997;-89
2022/02/05 05:33:11;;;;;;;43.90;21.75;;;;;;;-2.25;75.79;97516.25;1708340;83;21331;-89
2022/02/05 05:35:37;;;;;;;45.40;20.85;;;;;;;-2.26;75.81;97514.52;1688701;83;21057;-90
2022/02/05 05:38:04;;;;;;;48.15;23.30;;;;;;;-2.29;75.98;97524.44;1678415;85;21045;-89
2022/02/05 05:40:31;;;;;;;45.43;23.45;;;;;;;-2.26;76.19;97515.81;1678523;85;21454;-89
2022/02/05 05:43:03;;;;;;;47.15;22.27;;;;;;;-2.26;76.21;97518.41;1692050;84;21021;-90
2022/02/05 05:45:39;;;;;;;41.40;21.70;;;;;;;-2.25;76.21;97514.95;1707397;84;21064;-89
2022/02/05 05:47:58;;;;;;;47.98;23.47;;;;;;;-2.21;76.11;97527.13;1700649;84;21086;-88
2022/02/05 05:53:12;;;;;;;44.03;21.60;;;;;;;-2.19;76.06;97518.96;1678387;85;21091;-88
2022/02/05 05:55:46;;;;;;;45.03;21.97;;;;;;;-2.17;75.98;97525.45;1677815;85;22183;-88
2022/02/05 05:58:15;;;;;;;47.73;22.15;;;;;;;-2.19;75.87;97528.46;1678505;85;21037;-89
2022/02/05 06:00:43;;;;;;;49.35;22.70;;;;;;;-2.18;75.80;97527.60;1694529;84;21087;-88
2022/02/05 06:03:10;;;;;;;48.65;23.10;;;;;;;-2.16;75.96;97525.91;1691389;84;21068;-87
2022/02/05 06:05:37;;;;;;;49.63;22.93;;;;;;;-2.15;75.79;97525.91;1654354;85;21414;-87
2022/02/05 06:08:05;;;;;;;44.15;22.32;;;;;;;-2.13;75.75;97531.13;1678485;84;21026;-88
2022/02/05 06:10:33;;;;;;;49.08;23.35;;;;;;;-2.13;75.87;97532.02;1678602;84;21387;-87
2022/02/05 06:12:59;;;;;;;56.35;25.35;;;;;;;-2.07;75.91;97535.55;1679876;85;21122;-88
2022/02/05 06:15:26;;;;;;;46.53;23.07;;;;;;;-2.05;75.73;97537.72;1679937;85;20992;-87
2022/02/05 06:17:53;;;;;;;48.23;23.57;;;;;;;-2.07;75.81;97536.43;1676994;84;21470;-87
2022/02/05 06:20:20;;;;;;;50.80;24.55;;;;;;;-2.02;75.77;97543.85;1678196;85;21477;-88
2022/02/05 06:22:47;;;;;;;49.67;24.52;;;;;;;-1.98;75.78;97544.76;1678046;85;21041;-88
2022/02/05 06:25:14;;;;;;;49.88;23.32;;;;;;;-1.93;75.84;97550.00;1678347;85;21056;-88
2022/02/05 06:27:40;;;;;;;47.67;23.15;;;;;;;-1.89;75.60;97544.00;1678629;85;21517;-88
2022/02/05 06:30:08;;;;;;;45.28;23.07;;;;;;;-1.86;75.76;97551.39;1678895;84;20993;-89
2022/02/05 06:32:35;;;;;;;49.18;24.87;;;;;;;-1.82;75.73;97552.74;1625881;87;21047;-87
2022/02/05 06:35:01;;;;;;;46.50;22.82;;;;;;;-1.79;75.63;97551.05;1638218;87;21001;-89
2022/02/05 06:37:28;;;;;;;50.12;24.65;;;;;;;-1.78;75.60;97554.53;1708077;83;21050;-89
2022/02/05 06:39:54;;;;;;;54.40;26.20;;;;;;;-1.75;75.63;97557.14;1708470;84;20984;-88
2022/02/05 06:42:21;;;;;;;53.02;25.05;;;;;;;-1.71;75.54;97564.58;1661835;85;21071;-90
2022/02/05 06:44:47;;;;;;;48.90;26.57;;;;;;;-1.73;75.45;97572.34;1710210;84;20997;-88
2022/02/05 06:47:14;;;;;;;58.87;27.65;;;;;;;-1.69;75.47;97573.25;1709358;83;21479;-86
2022/02/05 06:49:41;;;;;;;57.75;26.93;;;;;;;-1.68;75.73;97575.88;1708201;84;21427;-86
2022/02/05 06:52:10;;;;;;;57.23;28.85;;;;;;;-1.66;75.68;97574.59;1708161;84;21052;-86
2022/02/05 06:54:37;;;;;;;66.07;30.25;;;;;;;-1.63;75.56;97572.02;1708340;84;21435;-87
2022/02/05 06:57:04;;;;;;;60.78;28.67;;;;;;;-1.62;75.60;97565.55;1684141;84;21072;-87
2022/02/05 06:59:31;;;;;;;60.25;29.77;;;;;;;-1.58;75.60;97569.05;1708548;84;21474;-86
2022/02/05 07:01:57;;;;;;;66.57;33.63;;;;;;;-1.56;75.46;97567.36;1710504;84;21001;-88
2022/02/05 07:04:26;;;;;;;68.78;32.42;;;;;;;-1.56;75.35;97567.77;1711179;83;21012;-87
2022/02/05 07:06:56;;;;;;;66.15;33.67;;;;;;;-1.57;75.37;97568.22;1709468;84;20985;-88
2022/02/05 07:09:23;;;;;;;68.30;32.35;;;;;;;-1.49;75.32;97576.10;1707453;84;21041;-88
2022/02/05 07:11:52;;;;;;;59.13;30.08;;;;;;;-1.49;75.37;97572.20;1686866;84;21004;-89
2022/02/05 07:14:23;;;;;;;63.45;31.57;;;;;;;-1.48;75.45;97560.95;1705825;84;20985;-89
2022/02/05 07:16:55;;;;;;;59.55;30.85;;;;;;;-1.47;75.45;97564.87;1708785;84;21455;-88
2022/02/05 07:21:48;;;;;;;66.35;32.65;;;;;;;-1.43;75.39;97563.17;1709773;84;21017;-87
2022/02/05 07:24:34;;;;;;;66.80;32.17;;;;;;;-1.41;75.37;97564.05;1693731;83;21061;-88
2022/02/05 07:29:37;;;;;;;61.25;31.33;;;;;;;-1.39;75.34;97568.85;1678503;85;21025;-88
2022/02/05 07:32:04;;;;;;;61.15;29.77;;;;;;;-1.37;75.47;97570.17;1670867;84;21390;-87
2022/02/05 07:34:35;;;;;;;61.83;30.32;;;;;;;-1.34;75.35;97573.67;1669033;86;21021;-88
2022/02/05 07:37:03;;;;;;;58.98;28.73;;;;;;;-1.33;75.24;97565.45;1669160;84;21422;-88
2022/02/05 07:39:34;;;;;;;64.75;30.50;;;;;;;-1.33;75.29;97553.76;1679533;85;21100;-88
2022/02/05 07:42:02;;;;;;;61.53;29.50;;;;;;;-1.30;75.19;97557.67;1682574;84;21410;-87
2022/02/05 07:44:29;;;;;;;73.95;33.38;;;;;;;-1.26;75.15;97566.37;1678355;85;21490;-88
2022/02/05 07:46:59;;;;;;;64.15;30.85;;;;;;;-1.23;75.16;97559.50;1678397;85;21041;-88
2022/02/05 07:49:24;;;;;;;61.30;31.30;;;;;;;-1.21;74.93;97560.38;1678111;85;21056;-89
2022/02/05 07:51:51;;;;;;;63.38;32.05;;;;;;;-1.20;74.97;97563.86;1678755;85;21021;-89
2022/02/05 07:54:18;;;;;;;68.33;32.75;;;;;;;-1.17;74.90;97565.17;1678199;85;21073;-88
2022/02/05 07:56:50;;;;;;;67.25;30.80;;;;;;;-1.16;74.73;97566.05;1678071;85;21433;-86
2022/02/05 07:59:18;;;;;;;68.37;30.17;;;;;;;-1.15;75.00;97564.77;1678489;85;21494;-88
2022/02/05 08:01:46;;;;;;;67.35;31.60;;;;;;;-1.16;74.97;97566.05;1678485;85;21005;-87
2022/02/05 08:04:13;;;;;;;68.25;31.35;;;;;;;-1.23;74.94;97571.20;1678480;85;21507;-87
2022/02/05 08:06:42;;;;;;;68.37;30.55;;;;;;;-1.20;75.10;97563.86;1703069;84;21045;-87
2022/02/05 08:11:51;;;;;;;69.92;31.20;;;;;;;-1.23;74.92;97565.11;1666384;84;21046;-86
2022/02/05 08:14:13;;;;;;;66.82;32.63;;;;;;;-1.22;74.89;97557.75;1697976;84;21414;-87
2022/02/05 08:19:07;;;;;;;66.15;32.10;;;;;;;-1.24;74.93;97573.33;1709498;84;21001;-87
2022/02/05 08:21:34;;;;;;;65.47;31.15;;;;;;;-1.23;74.91;97564.70;1709708;83;21064;-87
2022/02/05 08:24:00;;;;;;;59.88;29.45;;;;;;;-1.23;75.31;97564.70;1709445;83;21104;-87
2022/02/05 08:26:31;;;;;;;61.88;31.33;;;;;;;-1.27;75.26;97564.22;1709014;83;21037;-87
2022/02/05 08:29:00;;;;;;;68.80;31.62;;;;;;;-1.30;75.32;97557.67;1708272;83;21056;-88
2022/02/05 08:31:27;;;;;;;63.98;30.60;;;;;;;-1.28;75.32;97553.80;1692577;84;20941;-88
2022/02/05 08:33:54;;;;;;;70.08;31.27;;;;;;;-1.25;75.47;97559.89;1696423;84;20985;-88
2022/02/05 08:36:24;;;;;;;66.25;31.05;;;;;;;-1.19;75.36;97557.80;1699321;83;21016;-88
2022/02/05 08:38:53;;;;;;;61.45;29.48;;;;;;;-1.15;75.26;97562.17;1692635;84;21096;-87
2022/02/05 08:41:20;;;;;;;68.85;30.30;;;;;;;-1.10;75.13;97572.61;1703919;84;21059;-88
2022/02/05 08:43:46;;;;;;;57.73;28.45;;;;;;;-1.07;75.04;97578.70;1678833;84;20993;-88
2022/02/05 08:46:14;;;;;;;64.55;30.48;;;;;;;-1.05;74.94;97577.87;1703159;84;20989;-86
2022/02/05 08:48:40;;;;;;;65.35;29.90;;;;;;;-1.00;74.90;97586.59;1705609;84;21024;-87
2022/02/05 08:51:07;;;;;;;58.60;28.27;;;;;;;-1.01;74.84;97580.50;1690390;84;21533;-85
2022/02/05 08:53:35;;;;;;;61.98;29.23;;;;;;;-1.02;74.81;97594.38;1693861;84;20981;-83
2022/02/05 08:56:02;;;;;;;60.45;29.45;;;;;;;-1.00;74.89;97596.55;1681417;84;21025;-85
2022/02/05 08:58:29;;;;;;;65.08;30.35;;;;;;;-0.98;74.71;97593.55;1688692;84;21064;-86
2022/02/05 09:01:09;;;;;;;61.95;30.52;;;;;;;-1.03;74.71;97577.45;1691331;84;22125;-86
2022/02/05 09:03:32;;;;;;;58.83;28.92;;;;;;;-0.94;74.96;97578.84;1700687;84;21052;-84
2022/02/05 09:05:53;;;;;;;61.85;29.30;;;;;;;-0.85;74.97;97572.42;1705250;84;21053;-78
2022/02/05 09:08:31;;;;;;;59.38;29.72;;;;;;;-0.71;74.97;97564.73;1692272;84;21048;-81
2022/02/05 09:11:05;;;;;;;57.17;30.80;;;;;;;-0.57;74.60;97573.09;1707018;84;21049;-79
2022/02/05 09:13:57;;;;;;;59.33;30.00;;;;;;;-0.43;74.42;97586.20;1707646;83;21486;-79
2022/02/05 09:16:13;;;;;;;60.33;29.10;;;;;;;-0.41;74.31;97591.02;1688293;84;21065;-78
2022/02/05 09:18:43;;;;;;;57.48;28.17;;;;;;;-0.30;74.42;97592.37;1677941;85;21068;-79
2022/02/05 09:21:10;;;;;;;57.17;29.52;;;;;;;-0.19;73.20;97594.64;1678477;85;21550;-79
2022/02/05 09:23:45;;;;;;;58.45;29.02;;;;;;;-0.24;73.17;97592.44;1683758;84;21057;-79
2022/02/05 09:26:13;;;;;;;58.25;28.47;;;;;;;-0.11;72.87;97589.91;1696044;83;21339;-79
2022/02/05 09:28:42;;;;;;;56.00;29.65;;;;;;;-0.04;73.35;97586.04;1681443;85;21059;-79
2022/02/05 09:33:39;;;;;;;63.23;30.35;;;;;;;0.24;73.25;97581.41;1696166;84;21073;-79
2022/02/05 09:36:07;;;;;;;59.70;29.02;;;;;;;0.34;73.00;97583.19;1686808;83;21069;-79
2022/02/05 09:38:35;;;;;;;58.25;28.60;;;;;;;0.45;72.81;97578.48;1678539;85;21001;-79
2022/02/05 09:41:02;;;;;;;57.75;29.20;;;;;;;0.58;72.16;97585.92;1678346;85;21033;-79
2022/02/05 09:43:31;;;;;;;57.33;29.55;;;;;;;0.56;71.55;97579.39;1678555;85;21005;-79
2022/02/05 09:45:58;;;;;;;53.05;27.67;;;;;;;0.61;70.97;97582.00;1678552;85;21076;-79
2022/02/05 09:48:29;;;;;;;53.78;28.73;;;;;;;0.65;71.65;97574.21;1678574;85;21502;-79
2022/02/05 09:51:04;;;;;;;56.65;29.57;;;;;;;0.70;71.45;97576.82;1707961;84;21048;-79
2022/02/05 09:53:26;;;;;;;59.13;29.25;;;;;;;0.73;71.39;97570.32;1707606;84;20997;-79
2022/02/05 09:55:52;;;;;;;53.25;28.30;;;;;;;0.82;71.07;97575.98;1708225;84;21048;-79
2022/02/05 09:58:18;;;;;;;50.45;27.02;;;;;;;0.97;70.83;97571.25;1708458;84;21060;-79
2022/02/05 10:01:02;;;;;;;56.08;29.20;;;;;;;1.05;70.30;97564.73;1705684;84;21033;-79
2022/02/05 10:03:32;;;;;;;52.90;28.87;;;;;;;1.17;70.13;97567.80;1677879;85;21072;-79
2022/02/05 10:06:10;;;;;;;59.33;31.48;;;;;;;1.26;70.28;97563.90;1677945;85;21053;-79
2022/02/05 10:08:39;;;;;;;59.93;29.98;;;;;;;1.35;69.01;97567.36;1678626;85;21423;-79
2022/02/05 10:11:07;;;;;;;61.28;31.45;;;;;;;1.49;68.78;97569.55;1678552;85;21030;-79
2022/02/05 10:13:34;;;;;;;61.85;29.40;;;;;;;1.65;69.42;97561.27;1691997;84;20977;-79
2022/02/05 10:16:02;;;;;;;57.27;29.60;;;;;;;1.79;69.13;97558.62;1708283;84;21001;-79
2022/02/05 10:18:33;;;;;;;57.88;31.10;;;;;;;1.84;69.19;97553.41;1708268;84;21466;-79
2022/02/05 10:21:20;;;;;;;59.98;31.65;;;;;;;1.88;68.71;97547.31;1702986;84;21565;-79
2022/02/05 10:24:04;;;;;;;66.28;31.93;;;;;;;1.83;67.24;97543.84;1708000;83;21045;-78
2022/02/05 10:26:43;;;;;;;61.70;31.73;;;;;;;1.75;67.22;97544.28;1708550;84;21048;-79
2022/02/05 10:29:16;;;;;;;59.42;31.33;;;;;;;1.79;67.86;97544.26;1664353;83;21052;-79
2022/02/05 10:37:29;;;;;;;59.65;30.20;;;;;;;1.71;67.25;97535.58;1625981;87;21072;-79
2022/02/05 10:40:08;;;;;;;54.80;29.57;;;;;;;1.74;67.08;97538.17;1620019;89;21010;-79
2022/02/05 10:45:09;;;;;;;59.35;31.27;;;;;;;1.86;67.72;97530.75;1626061;88;20949;-79
2022/02/05 10:47:58;;;;;;;60.73;30.75;;;;;;;1.95;66.17;97506.36;1634186;86;21463;-79
2022/02/05 10:50:29;;;;;;;64.65;30.57;;;;;;;1.97;67.15;97509.40;1708368;84;21434;-79
2022/02/05 10:53:11;;;;;;;59.35;31.05;;;;;;;2.07;65.97;97506.73;1703616;84;21469;-79
2022/02/05 10:56:13;;;;;;;61.63;30.02;;;;;;;2.10;66.56;97502.38;1707788;83;21009;-78
2022/02/05 11:07:14;;;;;;;57.70;29.52;;;;;;;5.77;56.72;97514.23;1708632;84;21028;-78
2022/02/05 11:09:44;;;;;;;58.30;32.48;;;;;;;6.86;56.00;97507.67;1660305;86;21035;-78
2022/02/05 11:20:21;;;;;;;56.90;33.05;;;;;;;7.67;54.52;97511.47;1660081;86;21043;-78
2022/02/05 11:23:05;;;;;;;73.87;33.00;;;;;;;8.95;51.00;97506.63;1707897;83;21008;-78
2022/02/05 11:25:40;;;;;;;62.38;32.98;;;;;;;9.89;48.36;97501.36;1697000;84;21087;-81
2022/02/05 11:28:10;;;;;;;56.75;32.95;;;;;;;10.63;43.42;97499.64;1704879;83;21085;-80
2022/02/05 11:30:47;;;;;;;54.55;32.70;;;;;;;10.89;47.18;97493.83;1689845;84;21017;-79
2022/02/05 11:33:28;;;;;;;52.78;31.90;;;;;;;10.48;44.92;97494.48;1696262;84;21100;-76
2022/02/05 11:38:43;;;;;;;55.67;33.73;;;;;;;9.73;47.10;97484.30;1694499;84;21008;-78
2022/02/05 11:41:30;;;;;;;53.08;31.17;;;;;;;10.73;46.17;97483.39;1692855;84;21044;-78
2022/02/05 11:44:29;;;;;;;48.02;32.38;;;;;;;11.94;44.73;97485.14;1648236;86;21061;-79
2022/02/05 11:47:11;;;;;;;47.00;28.92;;;;;;;12.50;39.70;97484.03;1692269;84;21091;-79
2022/02/05 11:49:58;;;;;;;45.70;28.85;;;;;;;12.65;40.77;97475.83;1704725;84;20984;-79
2022/02/05 11:52:45;;;;;;;44.25;29.02;;;;;;;13.54;42.89;97474.77;1696811;84;21017;-78
2022/02/05 11:55:29;;;;;;;43.87;29.20;;;;;;;14.37;40.30;97462.94;1696605;84;21005;-79
2022/02/05 11:58:02;;;;;;;41.33;28.73;;;;;;;14.89;38.09;97450.40;1696232;84;21064;-80
2022/02/05 12:00:48;;;;;;;44.73;31.33;;;;;;;15.23;38.95;97450.28;1708648;84;21446;-82
2022/02/05 12:03:35;;;;;;;43.28;29.92;;;;;;;14.97;37.73;97451.77;1691531;84;21049;-78
2022/02/05 12:06:10;;;;;;;46.55;31.17;;;;;;;14.02;35.24;97447.48;1678685;85;21062;-79
2022/02/05 12:08:43;;;;;;;45.67;29.32;;;;;;;12.66;37.81;97454.95;1678572;85;21021;-77
2022/02/05 12:11:26;;;;;;;46.17;30.87;;;;;;;11.77;41.16;97451.36;1690286;84;21140;-80
2022/02/05 12:14:17;;;;;;;50.45;31.37;;;;;;;11.09;42.54;97453.73;1694532;84;21430;-80
2022/02/05 12:17:15;;;;;;;51.80;31.87;;;;;;;10.45;43.37;97458.81;1696841;84;21033;-80
2022/02/05 12:19:56;;;;;;;45.60;28.87;;;;;;;9.87;43.28;97451.60;1678322;85;21040;-80
2022/02/05 12:22:29;;;;;;;49.30;31.68;;;;;;;9.32;44.56;97454.36;1694366;84;21001;-79
2022/02/05 12:25:16;;;;;;;52.90;30.72;;;;;;;8.85;45.52;97471.23;1690572;84;21485;-79
2022/02/05 12:27:40;;;;;;;52.25;31.35;;;;;;;8.64;46.27;97475.88;1693446;83;21001;-79
2022/02/05 12:30:35;;;;;;;52.13;33.90;;;;;;;8.76;46.81;97480.77;1693486;85;21064;-80
2022/02/05 12:33:00;;;;;;;53.60;32.75;;;;;;;9.14;45.83;97491.52;1693220;84;21103;-80
2022/02/05 12:35:27;;;;;;;61.40;37.65;;;;;;;8.66;46.43;97484.60;1693434;85;21037;-80
2022/02/05 12:37:58;;;;;;;64.50;39.60;;;;;;;8.18;47.55;97507.95;1695744;83;21430;-80
2022/02/05 12:40:25;;;;;;;66.65;39.90;;;;;;;7.87;48.46;97514.05;1693514;85;21029;-80
2022/02/05 12:42:58;;;;;;;68.62;42.15;;;;;;;7.70;49.07;97513.17;1693325;85;21012;-80
2022/02/05 12:45:50;;;;;;;78.72;43.40;;;;;;;7.55;49.20;97519.72;1693850;83;21095;-80
2022/02/05 12:48:09;;;;;;;75.35;41.45;;;;;;;7.28;49.84;97537.92;1688468;83;21008;-79
2022/02/05 12:50:41;;;;;;;79.55;42.95;;;;;;;6.91;50.39;97535.24;1738767;82;21026;-79
2022/02/05 12:53:09;;;;;;;87.62;46.83;;;;;;;6.73;51.06;97538.68;1739449;82;21026;-79
2022/02/05 12:55:44;;;;;;;78.30;45.17;;;;;;;6.50;51.62;97538.30;1739291;82;21069;-79
2022/02/05 12:58:04;;;;;;;82.65;45.70;;;;;;;6.23;52.33;97549.34;1737955;82;21003;-79
2022/02/05 13:00:31;;;;;;;82.67;46.33;;;;;;;6.10;52.94;97543.45;1730593;82;21060;-79
2022/02/05 13:02:57;;;;;;;86.45;46.00;;;;;;;6.01;53.04;97544.46;1693460;85;21104;-79
2022/02/05 13:05:35;;;;;;;81.10;45.73;;;;;;;5.77;54.27;97540.53;1693384;85;21056;-79
2022/02/05 13:08:02;;;;;;;82.30;45.43;;;;;;;5.52;54.96;97552.31;1657323;87;20985;-79
2022/02/05 13:10:43;;;;;;;78.75;43.55;;;;;;;5.41;55.42;97559.05;1657238;86;21470;-79
2022/02/05 13:13:09;;;;;;;72.42;41.02;;;;;;;5.31;55.75;97552.66;1657761;87;21009;-79
2022/02/05 13:15:36;;;;;;;76.20;41.58;;;;;;;5.19;56.74;97554.56;1658781;86;21057;-79
2022/02/05 13:18:15;;;;;;;71.62;39.23;;;;;;;5.05;56.77;97554.78;1686618;84;21399;-79
2022/02/05 13:26:12;;;;;;;54.70;30.97;;;;;;;4.92;58.79;97550.16;1738991;82;20999;-79
2022/02/05 13:34:01;;;;;;;16.20;9.20;;;;;;;8.36;53.78;97542.22;1673559;85;20967;-79
2022/02/05 13:36:25;;;;;;;12.00;7.67;;;;;;;9.09;53.18;97546.72;1671690;86;21011;-80
2022/02/05 13:41:49;;;;;;;10.25;5.85;;;;;;;9.39;51.58;97559.05;1686151;85;21029;-79
2022/02/05 13:44:20;;;;;;;8.48;6.00;;;;;;;9.62;49.17;97554.77;1674354;84;21484;-79
2022/02/05 13:47:01;;;;;;;7.72;5.62;;;;;;;9.17;49.50;97551.77;1706550;82;21041;-79
2022/02/05 13:49:28;;;;;;;7.05;5.53;;;;;;;8.81;50.38;97570.48;1704935;82;20974;-79
2022/02/05 13:51:55;;;;;;;9.48;5.70;;;;;;;8.15;51.17;97556.86;1706705;82;21001;-78
2022/02/05 13:54:35;;;;;;;10.43;6.35;;;;;;;7.95;51.76;97552.98;1709039;84;21434;-78
2022/02/05 13:57:03;;;;;;;10.30;6.60;;;;;;;7.67;52.65;97557.63;1739112;82;21010;-79
2022/02/05 13:59:32;;;;;;;10.45;5.83;;;;;;;7.63;52.91;97548.06;1737535;82;20979;-78
2022/02/05 14:02:20;;;;;;;7.83;5.78;;;;;;;7.43;53.54;97544.61;1739607;82;21011;-79